sensor_id;sensor_type;location;lat;lon;timestamp;temperature;humidity
2907;DHT22;1463;51.070;16.998;2023-07-29T00:02:24;20.40;99.90
2907;DHT22;1463;51.070;16.998;2023-07-29T00:04:52;20.50;99.90
2907;DHT22;1463;51.070;16.998;2023-07-29T00:07:19;20.50;99.90
2907;DHT22;1463;51.070;16.998;2023-07-29T00:09:47;20.50;99.90
2907;DHT22;1463;51.070;16.998;2023-07-29T00:12:14;20.40;99.90
2907;DHT22;1463;51.070;16.998;2023-07-29T00:14:45;20.40;99.90
2907;DHT22;1463;51.070;16.998;2023-07-29T00:17:12;20.40;99.90
2907;DHT22;1463;51.070;16.998;2023-07-29T00:19:40;20.40;99.90
2907;DHT22;1463;51.070;16.998;2023-07-29T00:22:07;20.40;99.90
2907;DHT22;1463;51.070;16.998;2023-07-29T00:24:35;20.40;99.90
2907;DHT22;1463;51.070;16.998;2023-07-29T00:27:03;20.40;99.90
2907;DHT22;1463;51.070;16.998;2023-07-29T00:29:30;20.30;99.90
2907;DHT22;1463;51.070;16.998;2023-07-29T00:31:59;20.30;99.90
2907;DHT22;1463;51.070;16.998;2023-07-29T00:34:27;20.40;99.90
2907;DHT22;1463;51.070;16.998;2023-07-29T00:36:54;20.30;99.90
2907;DHT22;1463;51.070;16.998;2023-07-29T00:39:22;20.30;99.90
2907;DHT22;1463;51.070;16.998;2023-07-29T00:41:49;20.30;99.90
2907;DHT22;1463;51.070;16.998;2023-07-29T00:44:17;20.30;99.90
2907;DHT22;1463;51.070;16.998;2023-07-29T00:46:46;20.30;99.90
2907;DHT22;1463;51.070;16.998;2023-07-29T00:49:15;20.20;99.90
2907;DHT22;1463;51.070;16.998;2023-07-29T00:51:43;20.30;99.90
2907;DHT22;1463;51.070;16.998;2023-07-29T00:54:10;20.20;99.90
2907;DHT22;1463;51.070;16.998;2023-07-29T00:56:38;20.30;99.90
2907;DHT22;1463;51.070;16.998;2023-07-29T00:59:05;20.30;99.90
2907;DHT22;1463;51.070;16.998;2023-07-29T01:01:33;20.20;99.90
2907;DHT22;1463;51.070;16.998;2023-07-29T01:04:00;20.20;99.90
2907;DHT22;1463;51.070;16.998;2023-07-29T01:06:41;20.20;99.90
2907;DHT22;1463;51.070;16.998;2023-07-29T01:09:16;20.10;99.90
2907;DHT22;1463;51.070;16.998;2023-07-29T01:11:48;20.20;99.90
2907;DHT22;1463;51.070;16.998;2023-07-29T01:14:24;20.20;99.90
2907;DHT22;1463;51.070;16.998;2023-07-29T01:16:58;20.20;99.90
2907;DHT22;1463;51.070;16.998;2023-07-29T01:19:43;20.20;99.90
2907;DHT22;1463;51.070;16.998;2023-07-29T01:22:16;20.20;99.90
2907;DHT22;1463;51.070;16.998;2023-07-29T01:24:45;20.10;99.90
2907;DHT22;1463;51.070;16.998;2023-07-29T01:27:12;20.10;99.90
2907;DHT22;1463;51.070;16.998;2023-07-29T01:29:40;20.10;99.90
2907;DHT22;1463;51.070;16.998;2023-07-29T01:32:11;20.10;99.90
2907;DHT22;1463;51.070;16.998;2023-07-29T01:34:46;20.10;99.90
2907;DHT22;1463;51.070;16.998;2023-07-29T01:37:19;20.10;99.90
2907;DHT22;1463;51.070;16.998;2023-07-29T01:39:52;20.10;99.90
2907;DHT22;1463;51.070;16.998;2023-07-29T01:42:23;20.00;99.90
2907;DHT22;1463;51.070;16.998;2023-07-29T01:44:51;20.00;99.90
2907;DHT22;1463;51.070;16.998;2023-07-29T01:47:20;20.00;99.90
2907;DHT22;1463;51.070;16.998;2023-07-29T01:49:48;19.90;99.90
2907;DHT22;1463;51.070;16.998;2023-07-29T01:52:15;19.90;99.90
2907;DHT22;1463;51.070;16.998;2023-07-29T01:54:43;19.90;99.90
2907;DHT22;1463;51.070;16.998;2023-07-29T01:57:12;19.90;99.90
2907;DHT22;1463;51.070;16.998;2023-07-29T01:59:39;20.00;99.90
2907;DHT22;1463;51.070;16.998;2023-07-29T02:02:06;19.90;99.90
2907;DHT22;1463;51.070;16.998;2023-07-29T02:04:34;19.90;99.90
2907;DHT22;1463;51.070;16.998;2023-07-29T02:07:01;19.90;99.90
2907;DHT22;1463;51.070;16.998;2023-07-29T02:09:29;19.90;99.90
2907;DHT22;1463;51.070;16.998;2023-07-29T02:11:57;19.90;99.90
2907;DHT22;1463;51.070;16.998;2023-07-29T02:14:26;19.90;99.90
2907;DHT22;1463;51.070;16.998;2023-07-29T02:16:54;19.90;99.90
2907;DHT22;1463;51.070;16.998;2023-07-29T02:19:21;19.80;99.90
2907;DHT22;1463;51.070;16.998;2023-07-29T02:21:49;19.90;99.90
2907;DHT22;1463;51.070;16.998;2023-07-29T02:24:16;19.90;99.90
2907;DHT22;1463;51.070;16.998;2023-07-29T02:26:43;19.80;99.90
2907;DHT22;1463;51.070;16.998;2023-07-29T02:29:11;19.80;99.90
2907;DHT22;1463;51.070;16.998;2023-07-29T02:31:40;19.80;99.90
2907;DHT22;1463;51.070;16.998;2023-07-29T02:34:07;19.80;99.90
2907;DHT22;1463;51.070;16.998;2023-07-29T02:36:35;19.80;99.90
2907;DHT22;1463;51.070;16.998;2023-07-29T02:39:02;19.80;99.90
2907;DHT22;1463;51.070;16.998;2023-07-29T02:41:30;19.70;99.90
2907;DHT22;1463;51.070;16.998;2023-07-29T02:43:58;19.70;99.90
2907;DHT22;1463;51.070;16.998;2023-07-29T02:46:26;19.80;99.90
2907;DHT22;1463;51.070;16.998;2023-07-29T02:48:55;19.70;99.90
2907;DHT22;1463;51.070;16.998;2023-07-29T02:51:22;19.70;99.90
2907;DHT22;1463;51.070;16.998;2023-07-29T02:53:50;19.70;99.90
2907;DHT22;1463;51.070;16.998;2023-07-29T02:56:17;19.70;99.90
2907;DHT22;1463;51.070;16.998;2023-07-29T02:58:47;19.70;99.90
2907;DHT22;1463;51.070;16.998;2023-07-29T03:01:18;19.70;99.90
2907;DHT22;1463;51.070;16.998;2023-07-29T03:03:45;19.60;99.90
2907;DHT22;1463;51.070;16.998;2023-07-29T03:06:15;19.60;99.90
2907;DHT22;1463;51.070;16.998;2023-07-29T03:08:42;19.60;99.90
2907;DHT22;1463;51.070;16.998;2023-07-29T03:11:11;19.60;99.90
2907;DHT22;1463;51.070;16.998;2023-07-29T03:13:39;19.60;99.90
2907;DHT22;1463;51.070;16.998;2023-07-29T03:16:07;19.60;99.90
2907;DHT22;1463;51.070;16.998;2023-07-29T03:18:36;19.60;99.90
2907;DHT22;1463;51.070;16.998;2023-07-29T03:21:04;19.60;99.90
2907;DHT22;1463;51.070;16.998;2023-07-29T03:23:34;19.60;99.90
2907;DHT22;1463;51.070;16.998;2023-07-29T03:26:03;19.60;99.90
2907;DHT22;1463;51.070;16.998;2023-07-29T03:28:37;19.60;99.90
2907;DHT22;1463;51.070;16.998;2023-07-29T03:31:05;19.60;99.90
2907;DHT22;1463;51.070;16.998;2023-07-29T03:33:32;19.60;99.90
2907;DHT22;1463;51.070;16.998;2023-07-29T03:36:00;19.60;99.90
2907;DHT22;1463;51.070;16.998;2023-07-29T03:38:27;19.60;99.90
2907;DHT22;1463;51.070;16.998;2023-07-29T03:40:56;19.60;99.90
2907;DHT22;1463;51.070;16.998;2023-07-29T03:43:24;19.50;99.90
2907;DHT22;1463;51.070;16.998;2023-07-29T03:45:52;19.60;99.90
2907;DHT22;1463;51.070;16.998;2023-07-29T03:48:19;19.60;99.90
2907;DHT22;1463;51.070;16.998;2023-07-29T03:50:47;19.50;99.90
2907;DHT22;1463;51.070;16.998;2023-07-29T03:53:14;19.50;99.90
2907;DHT22;1463;51.070;16.998;2023-07-29T03:55:43;19.50;99.90
2907;DHT22;1463;51.070;16.998;2023-07-29T03:58:12;19.50;99.90
2907;DHT22;1463;51.070;16.998;2023-07-29T04:00:39;19.50;99.90
2907;DHT22;1463;51.070;16.998;2023-07-29T04:03:08;19.50;99.90
2907;DHT22;1463;51.070;16.998;2023-07-29T04:05:35;19.50;99.90
2907;DHT22;1463;51.070;16.998;2023-07-29T04:08:03;19.50;99.90
2907;DHT22;1463;51.070;16.998;2023-07-29T04:10:30;19.50;99.90
2907;DHT22;1463;51.070;16.998;2023-07-29T04:12:58;19.50;99.90
2907;DHT22;1463;51.070;16.998;2023-07-29T04:15:27;19.50;99.90
2907;DHT22;1463;51.070;16.998;2023-07-29T04:17:55;19.50;99.90
2907;DHT22;1463;51.070;16.998;2023-07-29T04:20:23;19.50;99.90
2907;DHT22;1463;51.070;16.998;2023-07-29T04:22:50;19.50;99.90
2907;DHT22;1463;51.070;16.998;2023-07-29T04:25:18;19.50;99.90
2907;DHT22;1463;51.070;16.998;2023-07-29T04:27:45;19.50;99.90
2907;DHT22;1463;51.070;16.998;2023-07-29T04:30:13;19.50;99.90
2907;DHT22;1463;51.070;16.998;2023-07-29T04:32:42;19.60;99.90
2907;DHT22;1463;51.070;16.998;2023-07-29T04:35:11;19.60;99.90
2907;DHT22;1463;51.070;16.998;2023-07-29T04:37:38;19.60;99.90
2907;DHT22;1463;51.070;16.998;2023-07-29T04:40:07;19.60;99.90
2907;DHT22;1463;51.070;16.998;2023-07-29T04:42:35;19.70;99.90
2907;DHT22;1463;51.070;16.998;2023-07-29T04:45:04;19.70;99.90
2907;DHT22;1463;51.070;16.998;2023-07-29T04:47:32;19.70;99.90
2907;DHT22;1463;51.070;16.998;2023-07-29T04:50:01;19.70;99.90
2907;DHT22;1463;51.070;16.998;2023-07-29T04:52:29;19.70;99.90
2907;DHT22;1463;51.070;16.998;2023-07-29T04:54:56;19.80;99.90
2907;DHT22;1463;51.070;16.998;2023-07-29T04:57:24;19.70;99.90
2907;DHT22;1463;51.070;16.998;2023-07-29T04:59:51;19.80;99.90
2907;DHT22;1463;51.070;16.998;2023-07-29T05:02:19;19.80;99.90
2907;DHT22;1463;51.070;16.998;2023-07-29T05:04:46;19.80;99.90
2907;DHT22;1463;51.070;16.998;2023-07-29T05:07:15;19.80;99.90
2907;DHT22;1463;51.070;16.998;2023-07-29T05:09:43;19.80;99.90
2907;DHT22;1463;51.070;16.998;2023-07-29T05:12:10;19.90;99.90
2907;DHT22;1463;51.070;16.998;2023-07-29T05:14:38;19.90;99.90
2907;DHT22;1463;51.070;16.998;2023-07-29T05:17:06;20.00;99.90
2907;DHT22;1463;51.070;16.998;2023-07-29T05:19:33;20.00;99.90
2907;DHT22;1463;51.070;16.998;2023-07-29T05:22:01;20.00;99.90
2907;DHT22;1463;51.070;16.998;2023-07-29T05:24:30;20.00;99.90
2907;DHT22;1463;51.070;16.998;2023-07-29T05:26:57;20.00;99.90
2907;DHT22;1463;51.070;16.998;2023-07-29T05:29:25;20.00;99.90
2907;DHT22;1463;51.070;16.998;2023-07-29T05:31:52;20.10;99.90
2907;DHT22;1463;51.070;16.998;2023-07-29T05:34:20;20.10;99.90
2907;DHT22;1463;51.070;16.998;2023-07-29T05:36:47;20.10;99.90
2907;DHT22;1463;51.070;16.998;2023-07-29T05:39:15;20.20;99.90
2907;DHT22;1463;51.070;16.998;2023-07-29T05:41:44;20.20;99.90
2907;DHT22;1463;51.070;16.998;2023-07-29T05:44:12;20.30;99.90
2907;DHT22;1463;51.070;16.998;2023-07-29T05:46:40;20.30;99.90
2907;DHT22;1463;51.070;16.998;2023-07-29T05:49:07;20.40;99.90
2907;DHT22;1463;51.070;16.998;2023-07-29T05:51:34;20.40;99.90
2907;DHT22;1463;51.070;16.998;2023-07-29T05:54:02;20.50;99.90
2907;DHT22;1463;51.070;16.998;2023-07-29T05:56:30;20.50;99.90
2907;DHT22;1463;51.070;16.998;2023-07-29T05:58:59;20.50;99.90
2907;DHT22;1463;51.070;16.998;2023-07-29T06:01:26;20.50;99.90
2907;DHT22;1463;51.070;16.998;2023-07-29T06:03:54;20.60;99.90
2907;DHT22;1463;51.070;16.998;2023-07-29T06:06:21;20.70;99.90
2907;DHT22;1463;51.070;16.998;2023-07-29T06:08:50;20.70;99.90
2907;DHT22;1463;51.070;16.998;2023-07-29T06:11:17;20.70;99.90
2907;DHT22;1463;51.070;16.998;2023-07-29T06:13:46;20.80;99.90
2907;DHT22;1463;51.070;16.998;2023-07-29T06:16:16;20.80;99.90
2907;DHT22;1463;51.070;16.998;2023-07-29T06:18:43;20.90;99.90
2907;DHT22;1463;51.070;16.998;2023-07-29T06:21:11;20.90;99.90
2907;DHT22;1463;51.070;16.998;2023-07-29T06:23:42;20.90;99.90
2907;DHT22;1463;51.070;16.998;2023-07-29T06:26:10;21.00;99.90
2907;DHT22;1463;51.070;16.998;2023-07-29T06:28:37;21.00;99.90
2907;DHT22;1463;51.070;16.998;2023-07-29T06:31:05;21.10;99.90
2907;DHT22;1463;51.070;16.998;2023-07-29T06:33:34;21.20;99.90
2907;DHT22;1463;51.070;16.998;2023-07-29T06:36:02;21.20;99.90
2907;DHT22;1463;51.070;16.998;2023-07-29T06:38:29;21.20;99.90
2907;DHT22;1463;51.070;16.998;2023-07-29T06:40:57;21.40;99.90
2907;DHT22;1463;51.070;16.998;2023-07-29T06:43:24;21.40;99.90
2907;DHT22;1463;51.070;16.998;2023-07-29T06:45:52;21.50;99.90
2907;DHT22;1463;51.070;16.998;2023-07-29T06:48:20;21.50;99.90
2907;DHT22;1463;51.070;16.998;2023-07-29T06:50:49;21.50;99.90
2907;DHT22;1463;51.070;16.998;2023-07-29T06:53:18;21.50;99.90
2907;DHT22;1463;51.070;16.998;2023-07-29T06:55:45;21.60;99.90
2907;DHT22;1463;51.070;16.998;2023-07-29T06:58:14;21.60;99.90
2907;DHT22;1463;51.070;16.998;2023-07-29T07:00:41;21.60;99.90
2907;DHT22;1463;51.070;16.998;2023-07-29T07:03:09;21.60;99.90
2907;DHT22;1463;51.070;16.998;2023-07-29T07:05:36;21.70;99.90
2907;DHT22;1463;51.070;16.998;2023-07-29T07:08:05;21.70;99.90
2907;DHT22;1463;51.070;16.998;2023-07-29T07:10:32;21.70;99.90
2907;DHT22;1463;51.070;16.998;2023-07-29T07:13:00;21.80;99.90
2907;DHT22;1463;51.070;16.998;2023-07-29T07:15:28;21.90;99.90
2907;DHT22;1463;51.070;16.998;2023-07-29T07:17:56;21.90;99.90
2907;DHT22;1463;51.070;16.998;2023-07-29T07:20:23;21.90;99.90
2907;DHT22;1463;51.070;16.998;2023-07-29T07:22:50;21.90;99.90
2907;DHT22;1463;51.070;16.998;2023-07-29T07:25:19;22.00;99.90
2907;DHT22;1463;51.070;16.998;2023-07-29T07:27:47;22.10;99.90
2907;DHT22;1463;51.070;16.998;2023-07-29T07:30:14;22.20;99.90
2907;DHT22;1463;51.070;16.998;2023-07-29T07:32:42;22.30;99.90
2907;DHT22;1463;51.070;16.998;2023-07-29T07:35:11;22.30;99.90
2907;DHT22;1463;51.070;16.998;2023-07-29T07:37:38;22.30;99.90
2907;DHT22;1463;51.070;16.998;2023-07-29T07:40:07;22.30;99.90
2907;DHT22;1463;51.070;16.998;2023-07-29T07:42:36;22.40;99.90
2907;DHT22;1463;51.070;16.998;2023-07-29T07:45:04;22.40;99.90
2907;DHT22;1463;51.070;16.998;2023-07-29T07:47:31;22.50;99.90
2907;DHT22;1463;51.070;16.998;2023-07-29T07:49:59;22.50;99.90
2907;DHT22;1463;51.070;16.998;2023-07-29T07:52:27;22.60;99.90
2907;DHT22;1463;51.070;16.998;2023-07-29T07:54:55;22.70;99.90
2907;DHT22;1463;51.070;16.998;2023-07-29T07:57:23;22.70;99.90
2907;DHT22;1463;51.070;16.998;2023-07-29T07:59:52;22.70;99.90
2907;DHT22;1463;51.070;16.998;2023-07-29T08:02:19;22.80;99.90
2907;DHT22;1463;51.070;16.998;2023-07-29T08:04:47;22.80;99.90
2907;DHT22;1463;51.070;16.998;2023-07-29T08:07:15;22.80;99.90
2907;DHT22;1463;51.070;16.998;2023-07-29T08:09:42;22.70;99.90
2907;DHT22;1463;51.070;16.998;2023-07-29T08:12:09;22.70;99.90
2907;DHT22;1463;51.070;16.998;2023-07-29T08:14:37;22.80;99.90
2907;DHT22;1463;51.070;16.998;2023-07-29T08:17:06;22.90;99.90
2907;DHT22;1463;51.070;16.998;2023-07-29T08:19:36;23.00;99.90
2907;DHT22;1463;51.070;16.998;2023-07-29T08:22:03;22.90;99.90
2907;DHT22;1463;51.070;16.998;2023-07-29T08:24:31;22.90;99.90
2907;DHT22;1463;51.070;16.998;2023-07-29T08:26:59;23.00;99.90
2907;DHT22;1463;51.070;16.998;2023-07-29T08:29:27;23.00;99.90
2907;DHT22;1463;51.070;16.998;2023-07-29T08:31:54;23.00;99.90
2907;DHT22;1463;51.070;16.998;2023-07-29T08:34:24;23.00;99.90
2907;DHT22;1463;51.070;16.998;2023-07-29T08:36:52;23.00;99.90
2907;DHT22;1463;51.070;16.998;2023-07-29T08:39:19;23.00;99.90
2907;DHT22;1463;51.070;16.998;2023-07-29T08:41:53;23.00;99.90
2907;DHT22;1463;51.070;16.998;2023-07-29T08:44:22;23.00;99.90
2907;DHT22;1463;51.070;16.998;2023-07-29T08:46:50;23.20;99.90
2907;DHT22;1463;51.070;16.998;2023-07-29T08:49:20;23.10;99.90
2907;DHT22;1463;51.070;16.998;2023-07-29T08:51:51;23.20;99.90
2907;DHT22;1463;51.070;16.998;2023-07-29T08:54:20;23.30;99.90
2907;DHT22;1463;51.070;16.998;2023-07-29T08:56:49;23.30;99.90
2907;DHT22;1463;51.070;16.998;2023-07-29T08:59:16;23.30;99.90
2907;DHT22;1463;51.070;16.998;2023-07-29T09:01:45;23.30;99.90
2907;DHT22;1463;51.070;16.998;2023-07-29T09:04:13;23.40;99.90
2907;DHT22;1463;51.070;16.998;2023-07-29T09:06:43;23.50;99.90
2907;DHT22;1463;51.070;16.998;2023-07-29T09:09:13;23.60;99.90
2907;DHT22;1463;51.070;16.998;2023-07-29T09:11:41;23.70;99.90
2907;DHT22;1463;51.070;16.998;2023-07-29T09:14:09;23.70;99.90
2907;DHT22;1463;51.070;16.998;2023-07-29T09:16:37;23.70;99.90
2907;DHT22;1463;51.070;16.998;2023-07-29T09:19:05;23.70;99.90
2907;DHT22;1463;51.070;16.998;2023-07-29T09:21:32;23.80;99.90
2907;DHT22;1463;51.070;16.998;2023-07-29T09:24:03;24.00;99.90
2907;DHT22;1463;51.070;16.998;2023-07-29T09:26:32;23.90;99.90
2907;DHT22;1463;51.070;16.998;2023-07-29T09:29:00;24.00;99.90
2907;DHT22;1463;51.070;16.998;2023-07-29T09:31:29;24.10;99.90
2907;DHT22;1463;51.070;16.998;2023-07-29T09:33:57;24.00;99.90
2907;DHT22;1463;51.070;16.998;2023-07-29T09:36:25;24.10;99.90
2907;DHT22;1463;51.070;16.998;2023-07-29T09:38:53;24.10;99.90
2907;DHT22;1463;51.070;16.998;2023-07-29T09:43:56;24.00;99.90
2907;DHT22;1463;51.070;16.998;2023-07-29T09:46:26;24.00;99.90
2907;DHT22;1463;51.070;16.998;2023-07-29T09:48:59;24.00;99.90
2907;DHT22;1463;51.070;16.998;2023-07-29T09:51:26;24.10;99.90
2907;DHT22;1463;51.070;16.998;2023-07-29T09:53:54;24.20;99.90
2907;DHT22;1463;51.070;16.998;2023-07-29T09:56:25;24.10;99.90
2907;DHT22;1463;51.070;16.998;2023-07-29T09:58:57;24.10;99.90
2907;DHT22;1463;51.070;16.998;2023-07-29T10:01:24;24.10;99.90
2907;DHT22;1463;51.070;16.998;2023-07-29T10:03:52;24.20;99.90
2907;DHT22;1463;51.070;16.998;2023-07-29T10:06:22;24.20;99.90
2907;DHT22;1463;51.070;16.998;2023-07-29T10:08:50;24.10;99.90
2907;DHT22;1463;51.070;16.998;2023-07-29T10:11:21;24.10;99.90
2907;DHT22;1463;51.070;16.998;2023-07-29T10:13:49;24.10;99.90
2907;DHT22;1463;51.070;16.998;2023-07-29T10:16:19;24.20;99.90
2907;DHT22;1463;51.070;16.998;2023-07-29T10:18:46;24.50;99.90
2907;DHT22;1463;51.070;16.998;2023-07-29T10:21:15;24.50;99.90
2907;DHT22;1463;51.070;16.998;2023-07-29T10:23:47;24.60;99.90
2907;DHT22;1463;51.070;16.998;2023-07-29T10:26:19;24.50;99.90
2907;DHT22;1463;51.070;16.998;2023-07-29T10:28:48;24.40;99.90
2907;DHT22;1463;51.070;16.998;2023-07-29T10:31:19;24.60;99.90
2907;DHT22;1463;51.070;16.998;2023-07-29T10:33:48;24.70;99.90
2907;DHT22;1463;51.070;16.998;2023-07-29T10:36:17;24.90;99.90
2907;DHT22;1463;51.070;16.998;2023-07-29T10:38:44;24.90;99.90
2907;DHT22;1463;51.070;16.998;2023-07-29T10:41:12;25.00;99.90
2907;DHT22;1463;51.070;16.998;2023-07-29T10:43:40;25.10;99.90
2907;DHT22;1463;51.070;16.998;2023-07-29T10:46:16;25.10;99.90
2907;DHT22;1463;51.070;16.998;2023-07-29T10:48:53;25.10;99.90
2907;DHT22;1463;51.070;16.998;2023-07-29T10:51:28;25.10;99.90
2907;DHT22;1463;51.070;16.998;2023-07-29T10:54:00;25.20;99.90
2907;DHT22;1463;51.070;16.998;2023-07-29T10:56:29;25.30;99.90
2907;DHT22;1463;51.070;16.998;2023-07-29T11:01:51;25.40;99.90
2907;DHT22;1463;51.070;16.998;2023-07-29T11:04:26;25.40;99.90
2907;DHT22;1463;51.070;16.998;2023-07-29T11:07:20;25.50;99.90
2907;DHT22;1463;51.070;16.998;2023-07-29T11:10:02;25.60;99.90
2907;DHT22;1463;51.070;16.998;2023-07-29T11:12:38;25.70;99.90
2907;DHT22;1463;51.070;16.998;2023-07-29T11:15:13;25.70;99.90
2907;DHT22;1463;51.070;16.998;2023-07-29T11:17:42;25.70;99.90
2907;DHT22;1463;51.070;16.998;2023-07-29T11:20:12;25.60;99.90
2907;DHT22;1463;51.070;16.998;2023-07-29T11:22:40;25.80;99.90
2907;DHT22;1463;51.070;16.998;2023-07-29T11:25:08;25.90;99.90
2907;DHT22;1463;51.070;16.998;2023-07-29T11:27:36;25.90;99.90
2907;DHT22;1463;51.070;16.998;2023-07-29T11:30:06;25.90;99.90
2907;DHT22;1463;51.070;16.998;2023-07-29T11:32:34;25.80;99.90
2907;DHT22;1463;51.070;16.998;2023-07-29T11:35:03;25.80;99.90
2907;DHT22;1463;51.070;16.998;2023-07-29T11:37:33;25.90;99.90
2907;DHT22;1463;51.070;16.998;2023-07-29T11:40:01;26.00;99.90
2907;DHT22;1463;51.070;16.998;2023-07-29T11:42:31;26.00;99.90
2907;DHT22;1463;51.070;16.998;2023-07-29T11:44:58;26.10;99.90
2907;DHT22;1463;51.070;16.998;2023-07-29T11:47:26;26.20;99.90
2907;DHT22;1463;51.070;16.998;2023-07-29T11:49:53;26.10;99.90
2907;DHT22;1463;51.070;16.998;2023-07-29T11:52:21;26.10;99.90
2907;DHT22;1463;51.070;16.998;2023-07-29T11:54:50;26.10;99.90
2907;DHT22;1463;51.070;16.998;2023-07-29T11:57:18;26.10;99.90
2907;DHT22;1463;51.070;16.998;2023-07-29T11:59:46;26.00;99.90
2907;DHT22;1463;51.070;16.998;2023-07-29T12:02:16;26.00;99.90
2907;DHT22;1463;51.070;16.998;2023-07-29T12:04:46;26.00;99.90
2907;DHT22;1463;51.070;16.998;2023-07-29T12:07:16;26.10;99.90
2907;DHT22;1463;51.070;16.998;2023-07-29T12:09:44;26.00;99.90
2907;DHT22;1463;51.070;16.998;2023-07-29T12:12:14;25.90;99.90
2907;DHT22;1463;51.070;16.998;2023-07-29T12:14:44;25.90;99.90
2907;DHT22;1463;51.070;16.998;2023-07-29T12:17:12;26.00;99.90
2907;DHT22;1463;51.070;16.998;2023-07-29T12:19:41;26.00;99.90
2907;DHT22;1463;51.070;16.998;2023-07-29T12:22:10;26.00;99.90
2907;DHT22;1463;51.070;16.998;2023-07-29T12:24:40;26.10;99.90
2907;DHT22;1463;51.070;16.998;2023-07-29T12:27:11;26.00;99.90
2907;DHT22;1463;51.070;16.998;2023-07-29T12:29:44;26.10;99.90
2907;DHT22;1463;51.070;16.998;2023-07-29T12:32:14;26.10;99.90
2907;DHT22;1463;51.070;16.998;2023-07-29T12:34:42;26.20;99.90
2907;DHT22;1463;51.070;16.998;2023-07-29T12:37:09;26.10;99.90
2907;DHT22;1463;51.070;16.998;2023-07-29T12:39:40;26.20;99.90
2907;DHT22;1463;51.070;16.998;2023-07-29T12:42:08;26.20;99.90
2907;DHT22;1463;51.070;16.998;2023-07-29T12:44:37;26.20;99.90
2907;DHT22;1463;51.070;16.998;2023-07-29T12:47:06;26.20;99.90
2907;DHT22;1463;51.070;16.998;2023-07-29T12:49:37;26.20;99.90
2907;DHT22;1463;51.070;16.998;2023-07-29T12:52:05;26.10;99.90
2907;DHT22;1463;51.070;16.998;2023-07-29T12:54:33;26.20;99.90
2907;DHT22;1463;51.070;16.998;2023-07-29T12:57:00;26.20;99.90
2907;DHT22;1463;51.070;16.998;2023-07-29T12:59:28;26.10;99.90
2907;DHT22;1463;51.070;16.998;2023-07-29T13:01:55;26.00;99.90
2907;DHT22;1463;51.070;16.998;2023-07-29T13:04:24;26.10;99.90
2907;DHT22;1463;51.070;16.998;2023-07-29T13:06:52;26.00;99.90
2907;DHT22;1463;51.070;16.998;2023-07-29T13:09:19;25.90;99.90
2907;DHT22;1463;51.070;16.998;2023-07-29T13:11:47;25.80;99.90
2907;DHT22;1463;51.070;16.998;2023-07-29T13:14:14;25.80;99.90
2907;DHT22;1463;51.070;16.998;2023-07-29T13:16:41;25.90;99.90
2907;DHT22;1463;51.070;16.998;2023-07-29T13:19:09;25.90;99.90
2907;DHT22;1463;51.070;16.998;2023-07-29T13:21:38;26.00;99.90
2907;DHT22;1463;51.070;16.998;2023-07-29T13:24:06;26.10;99.90
2907;DHT22;1463;51.070;16.998;2023-07-29T13:26:34;26.00;99.90
2907;DHT22;1463;51.070;16.998;2023-07-29T13:29:02;26.10;99.90
2907;DHT22;1463;51.070;16.998;2023-07-29T13:31:30;26.10;99.90
2907;DHT22;1463;51.070;16.998;2023-07-29T13:33:58;26.00;99.90
2907;DHT22;1463;51.070;16.998;2023-07-29T13:36:25;26.00;99.90
2907;DHT22;1463;51.070;16.998;2023-07-29T13:38:54;26.10;99.90
2907;DHT22;1463;51.070;16.998;2023-07-29T13:41:22;26.10;99.90
2907;DHT22;1463;51.070;16.998;2023-07-29T13:43:49;26.10;99.90
2907;DHT22;1463;51.070;16.998;2023-07-29T13:46:17;26.10;99.90
2907;DHT22;1463;51.070;16.998;2023-07-29T13:48:47;26.10;99.90
2907;DHT22;1463;51.070;16.998;2023-07-29T13:51:14;26.10;99.90
2907;DHT22;1463;51.070;16.998;2023-07-29T13:53:42;26.10;99.90
2907;DHT22;1463;51.070;16.998;2023-07-29T13:56:11;26.20;99.90
2907;DHT22;1463;51.070;16.998;2023-07-29T13:58:39;26.20;99.90
2907;DHT22;1463;51.070;16.998;2023-07-29T14:01:07;26.10;99.90
2907;DHT22;1463;51.070;16.998;2023-07-29T14:03:34;26.00;99.90
2907;DHT22;1463;51.070;16.998;2023-07-29T14:06:01;26.10;99.90
2907;DHT22;1463;51.070;16.998;2023-07-29T14:08:29;26.20;99.90
2907;DHT22;1463;51.070;16.998;2023-07-29T14:10:57;26.10;99.90
2907;DHT22;1463;51.070;16.998;2023-07-29T14:13:26;26.00;99.90
2907;DHT22;1463;51.070;16.998;2023-07-29T14:15:53;26.00;99.90
2907;DHT22;1463;51.070;16.998;2023-07-29T14:18:21;25.90;99.90
2907;DHT22;1463;51.070;16.998;2023-07-29T14:20:48;25.80;99.90
2907;DHT22;1463;51.070;16.998;2023-07-29T14:23:17;25.90;99.90
2907;DHT22;1463;51.070;16.998;2023-07-29T14:25:44;25.90;99.90
2907;DHT22;1463;51.070;16.998;2023-07-29T14:28:14;25.90;99.90
2907;DHT22;1463;51.070;16.998;2023-07-29T14:30:43;25.90;99.90
2907;DHT22;1463;51.070;16.998;2023-07-29T14:33:10;25.80;99.90
2907;DHT22;1463;51.070;16.998;2023-07-29T14:35:39;25.80;99.90
2907;DHT22;1463;51.070;16.998;2023-07-29T14:38:06;25.70;99.90
2907;DHT22;1463;51.070;16.998;2023-07-29T14:40:34;25.80;99.90
2907;DHT22;1463;51.070;16.998;2023-07-29T14:43:01;25.70;99.90
2907;DHT22;1463;51.070;16.998;2023-07-29T14:45:29;25.70;99.90
2907;DHT22;1463;51.070;16.998;2023-07-29T14:47:58;25.60;99.90
2907;DHT22;1463;51.070;16.998;2023-07-29T14:50:25;25.60;99.90
2907;DHT22;1463;51.070;16.998;2023-07-29T14:52:53;25.60;99.90
2907;DHT22;1463;51.070;16.998;2023-07-29T14:55:20;25.60;99.90
2907;DHT22;1463;51.070;16.998;2023-07-29T14:57:48;25.50;99.90
2907;DHT22;1463;51.070;16.998;2023-07-29T15:00:15;25.50;99.90
2907;DHT22;1463;51.070;16.998;2023-07-29T15:02:43;25.50;99.90
2907;DHT22;1463;51.070;16.998;2023-07-29T15:05:12;25.50;99.90
2907;DHT22;1463;51.070;16.998;2023-07-29T15:07:40;25.40;99.90
2907;DHT22;1463;51.070;16.998;2023-07-29T15:10:08;25.40;99.90
2907;DHT22;1463;51.070;16.998;2023-07-29T15:12:35;25.40;99.90
2907;DHT22;1463;51.070;16.998;2023-07-29T15:15:04;25.40;99.90
2907;DHT22;1463;51.070;16.998;2023-07-29T15:17:31;25.40;99.90
2907;DHT22;1463;51.070;16.998;2023-07-29T15:19:59;25.30;99.90
2907;DHT22;1463;51.070;16.998;2023-07-29T15:22:28;25.40;99.90
2907;DHT22;1463;51.070;16.998;2023-07-29T15:24:57;25.40;99.90
2907;DHT22;1463;51.070;16.998;2023-07-29T15:27:25;25.40;99.90
2907;DHT22;1463;51.070;16.998;2023-07-29T15:29:52;25.40;99.90
2907;DHT22;1463;51.070;16.998;2023-07-29T15:32:20;25.40;99.90
2907;DHT22;1463;51.070;16.998;2023-07-29T15:34:47;25.40;99.90
2907;DHT22;1463;51.070;16.998;2023-07-29T15:37:15;25.40;99.90
2907;DHT22;1463;51.070;16.998;2023-07-29T15:39:44;25.40;99.90
2907;DHT22;1463;51.070;16.998;2023-07-29T15:42:12;25.30;99.90
2907;DHT22;1463;51.070;16.998;2023-07-29T15:44:39;25.30;99.90
2907;DHT22;1463;51.070;16.998;2023-07-29T15:47:07;25.20;99.90
2907;DHT22;1463;51.070;16.998;2023-07-29T15:49:35;25.20;99.90
2907;DHT22;1463;51.070;16.998;2023-07-29T15:52:03;25.20;99.90
2907;DHT22;1463;51.070;16.998;2023-07-29T15:54:31;25.20;99.90
2907;DHT22;1463;51.070;16.998;2023-07-29T15:57:00;25.10;99.90
2907;DHT22;1463;51.070;16.998;2023-07-29T15:59:27;25.10;99.90